createdAt,value
2019-03-18T00:00:01.758Z,1.40
2019-03-18T00:02:30.745Z,1.37
2019-03-18T00:04:59.827Z,1.10
2019-03-18T00:07:28.889Z,1.70
2019-03-18T00:09:57.894Z,1.37
2019-03-18T00:12:26.872Z,1.33
2019-03-18T00:15:01.290Z,1.87
2019-03-18T00:17:26.581Z,1.63
2019-03-18T00:19:55.568Z,1.00
2019-03-18T00:22:24.610Z,1.20
2019-03-18T00:24:53.709Z,0.93
2019-03-18T00:27:24.179Z,1.43
2019-03-18T00:29:53.228Z,0.97
2019-03-18T00:32:22.210Z,1.10
2019-03-18T00:34:51.241Z,1.00
2019-03-18T00:37:20.316Z,1.10
2019-03-18T00:39:49.393Z,1.40
2019-03-18T00:42:18.470Z,0.80
2019-03-18T00:44:47.522Z,0.90
2019-03-18T00:47:16.583Z,1.00
2019-03-18T00:49:45.548Z,1.43
2019-03-18T00:52:14.605Z,1.43
2019-03-18T00:54:43.562Z,1.00
2019-03-18T00:57:12.550Z,1.40
2019-03-18T00:59:41.592Z,0.90
2019-03-18T01:02:10.862Z,1.00
2019-03-18T01:04:40.016Z,1.07
2019-03-18T01:07:11.840Z,1.03
2019-03-18T01:09:40.826Z,1.10
2019-03-18T01:12:09.878Z,1.10
2019-03-18T01:14:38.986Z,1.00
2019-03-18T01:17:08.069Z,1.00
2019-03-18T01:19:37.068Z,1.00
2019-03-18T01:22:06.039Z,1.00
2019-03-18T01:24:35.111Z,1.00
2019-03-18T01:27:06.924Z,1.10
2019-03-18T01:29:37.481Z,1.00
2019-03-18T01:32:06.542Z,0.93
2019-03-18T01:34:35.631Z,1.17
2019-03-18T01:37:04.695Z,1.40
2019-03-18T01:39:33.723Z,1.10
2019-03-18T01:42:03.545Z,1.40
2019-03-18T01:44:32.567Z,1.40
2019-03-18T01:47:01.633Z,1.40
2019-03-18T01:49:30.731Z,1.50
2019-03-18T01:51:59.763Z,1.40
2019-03-18T01:54:28.821Z,1.33
2019-03-18T01:56:57.824Z,1.67
2019-03-18T01:59:26.807Z,1.83
2019-03-18T02:01:55.905Z,1.53
2019-03-18T02:04:25.155Z,1.73
2019-03-18T02:06:54.227Z,1.60
2019-03-18T02:09:23.273Z,1.47
2019-03-18T02:11:52.342Z,1.70
2019-03-18T02:14:21.447Z,1.83
2019-03-18T02:16:50.499Z,1.60
2019-03-18T02:19:19.526Z,1.97
2019-03-18T02:21:49.750Z,1.80
2019-03-18T02:24:23.700Z,1.90
2019-03-18T02:26:52.770Z,1.27
2019-03-18T02:29:24.981Z,2.40
2019-03-18T02:31:54.032Z,1.57
2019-03-18T02:34:22.988Z,1.63
2019-03-18T02:36:52.072Z,1.70
2019-03-18T02:39:21.187Z,1.10
2019-03-18T02:41:50.371Z,0.93
2019-03-18T02:44:19.334Z,1.43
2019-03-18T02:46:48.350Z,0.80
2019-03-18T02:49:18.768Z,0.77
2019-03-18T02:51:47.735Z,1.00
2019-03-18T02:54:16.731Z,0.70
2019-03-18T02:56:52.348Z,0.80
2019-03-18T02:59:21.339Z,1.20
2019-03-18T03:01:50.421Z,0.80
2019-03-18T03:04:19.413Z,1.47
2019-03-18T03:06:48.708Z,1.30
2019-03-18T03:09:17.787Z,0.93
2019-03-18T03:11:46.776Z,0.90
2019-03-18T03:14:15.845Z,1.23
2019-03-18T03:16:44.968Z,1.10
2019-03-18T03:19:14.036Z,0.80
2019-03-18T03:21:43.157Z,0.70
2019-03-18T03:24:12.132Z,0.60
2019-03-18T03:26:42.711Z,1.00
2019-03-18T03:29:11.685Z,0.67
2019-03-18T03:31:40.745Z,0.97
2019-03-18T03:34:13.471Z,0.70
2019-03-18T03:36:41.596Z,1.07
2019-03-18T03:39:10.665Z,0.90
2019-03-18T03:41:40.274Z,1.20
2019-03-18T03:44:09.199Z,1.47
2019-03-18T03:46:43.437Z,1.27
2019-03-18T03:49:09.515Z,1.77
2019-03-18T03:51:38.622Z,1.30
2019-03-18T03:54:07.688Z,1.30
2019-03-18T03:56:37.175Z,1.23
2019-03-18T03:59:06.320Z,1.20
2019-03-18T04:01:42.154Z,1.60
2019-03-18T04:04:11.568Z,1.93
2019-03-18T04:06:40.766Z,2.07
2019-03-18T04:09:10.050Z,1.53
2019-03-18T04:11:38.967Z,1.50
2019-03-18T04:14:08.019Z,1.83
2019-03-18T04:16:37.181Z,1.30
2019-03-18T04:19:06.259Z,1.40
2019-03-18T04:21:35.317Z,1.63
2019-03-18T04:24:05.652Z,1.40
2019-03-18T04:26:34.717Z,2.07
2019-03-18T04:29:10.511Z,2.00
2019-03-18T04:31:39.597Z,2.57
2019-03-18T04:34:08.764Z,2.47
2019-03-18T04:36:39.319Z,2.20
2019-03-18T04:39:09.065Z,1.93
2019-03-18T04:41:38.176Z,1.70
2019-03-18T04:44:08.866Z,2.60
2019-03-18T04:46:37.974Z,2.20
2019-03-18T04:49:07.494Z,2.10
2019-03-18T04:51:37.877Z,1.80
2019-03-18T04:54:07.039Z,1.80
2019-03-18T04:56:36.019Z,2.33
2019-03-18T04:59:05.091Z,1.80
2019-03-18T05:01:34.183Z,1.63
2019-03-18T05:04:10.294Z,2.07
2019-03-18T05:06:39.339Z,2.27
2019-03-18T05:09:08.433Z,1.63
2019-03-18T05:11:37.691Z,2.50
2019-03-18T05:14:06.611Z,1.93
2019-03-18T05:16:35.741Z,1.53
2019-03-18T05:19:04.803Z,1.50
2019-03-18T05:21:34.322Z,1.30
2019-03-18T05:24:03.353Z,1.50
2019-03-18T05:26:32.393Z,1.67
2019-03-18T05:29:01.464Z,1.17
2019-03-18T05:31:30.451Z,1.20
2019-03-18T05:33:59.621Z,1.43
2019-03-18T05:36:28.757Z,0.97
2019-03-18T05:38:57.817Z,1.00
2019-03-18T05:41:26.896Z,1.80
2019-03-18T05:43:55.900Z,0.83
2019-03-18T05:46:25.507Z,1.30
2019-03-18T05:48:54.590Z,1.07
2019-03-18T05:51:23.884Z,1.00
2019-03-18T05:53:53.247Z,1.03
2019-03-18T05:56:22.349Z,1.10
2019-03-18T05:58:51.558Z,1.17
2019-03-18T06:01:20.610Z,1.10
2019-03-18T06:03:49.689Z,1.10
2019-03-18T06:06:18.758Z,1.10
2019-03-18T06:08:51.350Z,1.10
2019-03-18T06:11:20.355Z,1.67
2019-03-18T06:13:49.562Z,1.00
2019-03-18T06:16:18.620Z,1.20
2019-03-18T06:18:47.618Z,1.17
2019-03-18T06:21:16.700Z,1.10
2019-03-18T06:23:45.696Z,0.93
2019-03-18T06:26:14.676Z,1.23
2019-03-18T06:28:43.756Z,1.20
2019-03-18T06:31:12.834Z,1.20
2019-03-18T06:33:41.738Z,1.20
2019-03-18T06:36:17.176Z,1.27
2019-03-18T06:38:46.087Z,1.70
2019-03-18T06:41:15.256Z,1.70
2019-03-18T06:43:44.495Z,1.47
2019-03-18T06:46:13.786Z,1.27
2019-03-18T06:48:42.851Z,1.43
2019-03-18T06:51:11.762Z,1.27
2019-03-18T06:53:40.831Z,1.10
2019-03-18T06:56:09.907Z,1.20
2019-03-18T06:58:38.922Z,1.40
2019-03-18T07:01:08.201Z,1.20
2019-03-18T07:03:37.127Z,1.03
2019-03-18T07:06:06.177Z,1.30
2019-03-18T07:08:35.281Z,1.17
2019-03-18T07:11:04.356Z,1.10
2019-03-18T07:13:33.423Z,1.13
2019-03-18T07:16:02.689Z,1.57
2019-03-18T07:18:31.707Z,1.50
2019-03-18T07:21:02.541Z,1.40
2019-03-18T07:23:31.680Z,1.03
2019-03-18T07:26:00.757Z,1.23
2019-03-18T07:28:29.836Z,1.23
2019-03-18T07:30:58.775Z,1.47
2019-03-18T07:33:27.834Z,1.77
2019-03-18T07:35:56.956Z,1.77
2019-03-18T07:38:26.644Z,1.60
2019-03-18T07:40:55.916Z,1.40
2019-03-18T07:43:25.005Z,1.53
2019-03-18T07:45:54.144Z,1.50
2019-03-18T07:48:30.932Z,1.87
2019-03-18T07:50:53.913Z,1.67
2019-03-18T07:53:22.897Z,1.70
2019-03-18T07:55:51.971Z,2.17
2019-03-18T07:58:22.465Z,1.57
2019-03-18T08:00:51.761Z,1.53
2019-03-18T08:03:20.832Z,1.50
2019-03-18T08:05:49.912Z,1.80
2019-03-18T08:08:18.990Z,2.47
2019-03-18T08:10:48.202Z,2.03
2019-03-18T08:13:17.191Z,2.20
2019-03-18T08:15:46.400Z,2.10
2019-03-18T08:18:17.656Z,2.33
2019-03-18T08:20:47.060Z,1.40
2019-03-18T08:23:16.123Z,2.13
2019-03-18T08:25:45.123Z,1.67
2019-03-18T08:28:14.209Z,1.67
2019-03-18T08:30:43.200Z,2.00
2019-03-18T08:33:12.290Z,1.37
2019-03-18T08:35:41.917Z,1.00
2019-03-18T08:38:12.871Z,1.03
2019-03-18T08:40:41.922Z,1.20
2019-03-18T08:43:13.143Z,0.90
2019-03-18T08:45:42.119Z,1.07
2019-03-18T08:48:21.193Z,1.20
2019-03-18T08:50:50.170Z,1.50
2019-03-18T08:53:19.253Z,1.17
2019-03-18T08:55:48.825Z,1.33
2019-03-18T08:58:17.829Z,1.20
2019-03-18T09:00:47.037Z,1.00
2019-03-18T09:03:16.130Z,1.47
2019-03-18T09:05:45.311Z,0.83
2019-03-18T09:08:14.603Z,0.80
2019-03-18T09:10:43.862Z,1.17
2019-03-18T09:13:12.910Z,1.77
2019-03-18T09:15:41.919Z,1.63
2019-03-18T09:18:10.958Z,0.90
2019-03-18T09:20:40.189Z,1.23
2019-03-18T09:23:09.322Z,1.33
2019-03-18T09:25:38.386Z,1.50
2019-03-18T09:28:07.618Z,2.17
2019-03-18T09:30:36.721Z,1.40
2019-03-18T09:33:05.900Z,1.60
2019-03-18T09:35:37.874Z,2.00
2019-03-18T09:38:06.880Z,1.60
2019-03-18T09:40:35.887Z,3.00
2019-03-18T09:43:04.946Z,1.93
2019-03-18T09:45:36.102Z,1.40
2019-03-18T09:48:11.396Z,1.90
2019-03-18T09:50:40.478Z,1.70
2019-03-18T09:53:09.547Z,2.30
2019-03-18T09:55:38.622Z,1.60
2019-03-18T09:58:07.729Z,1.87
2019-03-18T10:00:36.801Z,1.87
2019-03-18T10:03:07.330Z,2.27
2019-03-18T10:05:36.478Z,2.00
2019-03-18T10:08:05.471Z,2.20
2019-03-18T10:10:34.601Z,1.20
2019-03-18T10:13:03.659Z,1.33
2019-03-18T10:15:32.712Z,1.10
2019-03-18T10:18:01.798Z,1.00
2019-03-18T10:20:30.908Z,1.07
2019-03-18T10:23:02.818Z,1.90
2019-03-18T10:25:30.932Z,1.00
2019-03-18T10:27:59.996Z,1.30
2019-03-18T10:30:29.138Z,1.30
2019-03-18T10:32:58.230Z,1.30
2019-03-18T10:35:27.584Z,1.30
2019-03-18T10:37:56.630Z,1.30
2019-03-18T10:40:25.820Z,1.60
2019-03-18T10:42:54.891Z,1.53
2019-03-18T10:45:25.998Z,1.70
2019-03-18T10:47:55.196Z,1.57
2019-03-18T10:50:24.365Z,1.80
2019-03-18T10:52:53.366Z,2.03
2019-03-18T10:55:25.832Z,2.30
2019-03-18T10:57:54.891Z,1.43
2019-03-18T11:00:23.950Z,1.83
2019-03-18T11:02:53.046Z,1.63
2019-03-18T11:05:22.127Z,1.40
2019-03-18T11:07:51.926Z,2.43
2019-03-18T11:10:21.482Z,1.60
2019-03-18T11:12:50.628Z,1.23
2019-03-18T11:15:20.075Z,1.20
2019-03-18T11:17:49.227Z,1.70
2019-03-18T11:20:19.920Z,1.30
2019-03-18T11:22:48.995Z,1.40
2019-03-18T11:25:18.123Z,1.23
2019-03-18T11:27:47.207Z,1.30
2019-03-18T11:30:16.372Z,1.70
2019-03-18T11:32:45.497Z,1.27
2019-03-18T11:35:17.641Z,1.70
2019-03-18T11:37:47.058Z,1.40
2019-03-18T11:40:17.205Z,1.80
2019-03-18T11:42:46.268Z,1.37
2019-03-18T11:45:15.652Z,1.43
2019-03-18T11:47:44.811Z,1.20
2019-03-18T11:50:20.660Z,1.23
2019-03-18T11:52:49.812Z,1.50
2019-03-18T11:55:18.892Z,1.00
2019-03-18T11:57:49.075Z,0.97
2019-03-18T12:00:18.267Z,1.37
2019-03-18T12:02:47.328Z,1.30
2019-03-18T12:05:16.950Z,1.37
2019-03-18T12:07:48.928Z,1.43
2019-03-18T12:10:17.995Z,1.20
2019-03-18T12:12:47.073Z,1.07
2019-03-18T12:15:16.355Z,1.20
2019-03-18T12:17:45.461Z,0.70
2019-03-18T12:20:24.361Z,0.87
2019-03-18T12:22:45.603Z,1.23
2019-03-18T12:25:14.663Z,1.40
2019-03-18T12:27:43.781Z,1.07
2019-03-18T12:30:15.536Z,1.50
2019-03-18T12:32:44.645Z,1.30
2019-03-18T12:35:13.792Z,1.20
2019-03-18T12:37:42.890Z,1.10
2019-03-18T12:40:12.481Z,1.27
2019-03-18T12:42:41.563Z,1.30
2019-03-18T12:45:11.559Z,1.40
2019-03-18T12:47:40.634Z,1.40
2019-03-18T12:50:12.521Z,1.83
2019-03-18T12:52:41.701Z,1.47
2019-03-18T12:55:10.976Z,1.50
2019-03-18T12:57:40.015Z,1.50
2019-03-18T13:00:15.933Z,1.43
2019-03-18T13:02:45.113Z,1.30
2019-03-18T13:05:14.204Z,1.13
2019-03-18T13:07:43.276Z,1.07
2019-03-18T13:10:13.466Z,1.40
2019-03-18T13:12:42.518Z,1.40
2019-03-18T13:15:13.409Z,1.13
2019-03-18T13:17:43.908Z,1.10
2019-03-18T13:20:13.764Z,1.40
2019-03-18T13:23:01.965Z,1.10
2019-03-18T13:25:31.059Z,0.90
2019-03-18T13:28:00.146Z,1.13
2019-03-18T13:30:29.134Z,1.10
2019-03-18T13:32:58.316Z,1.30
2019-03-18T13:35:27.311Z,1.20
2019-03-18T13:37:56.304Z,0.90
2019-03-18T13:40:25.557Z,0.90
2019-03-18T13:42:54.637Z,1.07
2019-03-18T13:45:23.738Z,1.13
2019-03-18T13:47:52.987Z,1.83
2019-03-18T13:50:22.028Z,1.10
2019-03-18T13:52:51.521Z,1.20
2019-03-18T13:55:20.598Z,1.10
2019-03-18T13:57:49.652Z,1.27
2019-03-18T14:00:19.046Z,1.20
2019-03-18T14:02:48.496Z,1.43
2019-03-18T14:05:17.578Z,0.97
2019-03-18T14:07:59.055Z,1.07
2019-03-18T14:10:17.451Z,1.03
2019-03-18T14:12:46.534Z,1.10
2019-03-18T14:15:15.950Z,1.27
2019-03-18T14:17:45.034Z,1.10
2019-03-18T14:20:15.089Z,1.27
2019-03-18T14:22:49.245Z,1.00
2019-03-18T14:25:18.318Z,1.10
2019-03-18T14:27:47.474Z,1.33
2019-03-18T14:30:16.869Z,1.40
2019-03-18T14:32:46.170Z,1.23
2019-03-18T14:35:15.640Z,0.93
2019-03-18T14:37:44.770Z,1.03
2019-03-18T14:40:14.376Z,1.10
2019-03-18T14:42:43.795Z,1.10
2019-03-18T14:45:15.259Z,1.30
2019-03-18T14:47:44.368Z,1.30
2019-03-18T14:50:13.755Z,0.70
2019-03-18T14:52:42.878Z,1.10
2019-03-18T14:55:12.248Z,1.10
2019-03-18T14:57:42.675Z,1.10
2019-03-18T15:00:15.093Z,1.17
2019-03-18T15:02:44.161Z,0.97
2019-03-18T15:05:13.449Z,1.00
2019-03-18T15:07:42.561Z,1.10
2019-03-18T15:10:11.865Z,1.10
2019-03-18T15:13:00.039Z,1.10
2019-03-18T15:15:29.147Z,0.90
2019-03-18T15:17:58.444Z,0.83
2019-03-18T15:20:27.700Z,1.00
2019-03-18T15:22:56.786Z,1.30
2019-03-18T15:25:25.870Z,1.10
2019-03-18T15:27:54.912Z,1.27
2019-03-18T15:30:23.977Z,1.53
2019-03-18T15:32:53.170Z,1.20
2019-03-18T15:35:22.299Z,1.07
2019-03-18T15:37:51.389Z,0.80
2019-03-18T15:40:20.549Z,1.20
2019-03-18T15:42:49.840Z,1.20
2019-03-18T15:45:18.940Z,1.10
2019-03-18T15:47:47.990Z,1.33
2019-03-18T15:50:19.205Z,1.30
2019-03-18T15:52:48.268Z,1.83
2019-03-18T15:55:17.351Z,1.40
2019-03-18T15:57:49.566Z,1.33
2019-03-18T16:00:19.090Z,1.40
2019-03-18T16:02:48.259Z,1.10
2019-03-18T16:05:17.355Z,1.10
2019-03-18T16:07:46.386Z,1.13
2019-03-18T16:10:15.482Z,1.10
2019-03-18T16:12:44.661Z,1.37
2019-03-18T16:15:14.300Z,1.17
2019-03-18T16:17:43.470Z,1.30
2019-03-18T16:20:13.815Z,1.40
2019-03-18T16:22:42.939Z,1.53
2019-03-18T16:25:12.094Z,1.40
2019-03-18T16:27:41.242Z,1.37
2019-03-18T16:30:12.462Z,1.57
2019-03-18T16:32:41.721Z,1.20
2019-03-18T16:35:11.490Z,1.40
2019-03-18T16:37:40.671Z,1.47
2019-03-18T16:40:10.984Z,1.40
2019-03-18T16:42:40.638Z,1.67
2019-03-18T16:45:11.454Z,1.30
2019-03-18T16:47:44.457Z,1.67
2019-03-18T16:50:14.849Z,2.77
2019-03-18T16:52:44.001Z,1.07
2019-03-18T16:55:13.232Z,1.30
2019-03-18T16:57:42.478Z,1.10
2019-03-18T17:00:17.908Z,1.30
2019-03-18T17:02:47.696Z,1.23
2019-03-18T17:05:18.085Z,1.33
2019-03-18T17:07:48.423Z,1.77
2019-03-18T17:10:18.391Z,1.40
2019-03-18T17:12:49.509Z,1.27
2019-03-18T17:15:21.486Z,0.90
2019-03-18T17:17:53.296Z,1.20
2019-03-18T17:20:24.368Z,1.10
2019-03-18T17:22:58.926Z,1.07
2019-03-18T17:25:30.234Z,1.17
2019-03-18T17:28:03.270Z,1.30
2019-03-18T17:30:33.933Z,1.97
2019-03-18T17:33:05.272Z,1.40
2019-03-18T17:35:35.030Z,1.10
2019-03-18T17:38:06.472Z,1.27
2019-03-18T17:40:35.761Z,1.70
2019-03-18T17:43:05.497Z,1.23
2019-03-18T17:45:36.387Z,1.70
2019-03-18T17:48:05.529Z,1.43
2019-03-18T17:50:35.952Z,1.40
2019-03-18T17:53:08.257Z,1.30
2019-03-18T17:55:37.948Z,1.30
2019-03-18T17:58:07.130Z,2.00
2019-03-18T18:00:39.695Z,1.13
2019-03-18T18:03:09.277Z,1.70
2019-03-18T18:05:51.375Z,1.20
2019-03-18T18:08:24.298Z,1.10
2019-03-18T18:11:12.748Z,1.40
2019-03-18T18:13:43.774Z,1.80
2019-03-18T18:16:18.376Z,1.60
2019-03-18T18:18:48.104Z,1.50
2019-03-18T18:21:18.756Z,1.70
2019-03-18T18:23:48.206Z,1.30
2019-03-18T18:26:26.100Z,1.53
2019-03-18T18:28:58.572Z,1.70
2019-03-18T18:31:34.806Z,1.87
2019-03-18T18:34:04.003Z,1.47
2019-03-18T18:36:33.845Z,1.23
2019-03-18T18:39:10.550Z,1.60
2019-03-18T18:41:39.985Z,2.03
2019-03-18T18:44:09.118Z,1.30
2019-03-18T18:46:38.252Z,1.30
2019-03-18T18:49:07.477Z,1.40
2019-03-18T18:51:36.626Z,1.40
2019-03-18T18:54:05.837Z,1.47
2019-03-18T18:56:34.986Z,1.30
2019-03-18T18:59:04.140Z,1.60
2019-03-18T19:01:33.324Z,1.10
2019-03-18T19:04:02.583Z,1.60
2019-03-18T19:06:31.671Z,1.23
2019-03-18T19:09:00.736Z,1.37
2019-03-18T19:11:29.878Z,1.20
2019-03-18T19:13:59.026Z,1.33
2019-03-18T19:16:28.401Z,1.43
2019-03-18T19:18:58.375Z,1.73
2019-03-18T19:21:27.657Z,1.80
2019-03-18T19:23:56.816Z,1.83
2019-03-18T19:26:26.632Z,1.80
2019-03-18T19:28:57.361Z,1.60
2019-03-18T19:31:28.512Z,1.57
2019-03-18T19:33:57.449Z,2.27
2019-03-18T19:36:26.557Z,1.90
2019-03-18T19:38:56.031Z,2.03
2019-03-18T19:41:25.195Z,2.50
2019-03-18T19:43:54.426Z,2.10
2019-03-18T19:46:23.598Z,2.23
2019-03-18T19:48:52.801Z,2.47
2019-03-18T19:51:21.929Z,2.20
2019-03-18T19:53:51.599Z,2.60
2019-03-18T19:56:21.867Z,2.33
2019-03-18T19:58:50.988Z,3.10
2019-03-18T20:01:20.193Z,2.53
2019-03-18T20:03:49.376Z,2.60
2019-03-18T20:06:18.473Z,1.97
2019-03-18T20:08:47.610Z,2.07
2019-03-18T20:11:16.708Z,1.77
2019-03-18T20:13:45.799Z,1.90
2019-03-18T20:16:14.949Z,1.70
2019-03-18T20:18:44.076Z,1.90
2019-03-18T20:21:15.373Z,2.07
2019-03-18T20:23:44.492Z,1.80
2019-03-18T20:26:13.591Z,2.30
2019-03-18T20:28:44.576Z,2.40
2019-03-18T20:31:25.758Z,2.70
2019-03-18T20:33:51.154Z,1.97
2019-03-18T20:36:20.270Z,2.10
2019-03-18T20:38:49.424Z,2.10
2019-03-18T20:41:18.582Z,2.30
2019-03-18T20:43:47.786Z,1.83
2019-03-18T20:46:16.856Z,1.87
2019-03-18T20:48:45.980Z,2.00
2019-03-18T20:51:15.244Z,2.00
2019-03-18T20:53:44.422Z,1.73
2019-03-18T20:56:13.508Z,1.80
2019-03-18T20:58:42.717Z,1.97
2019-03-18T21:01:11.814Z,2.07
2019-03-18T21:03:41.035Z,2.00
2019-03-18T21:06:10.176Z,2.30
2019-03-18T21:08:39.278Z,2.10
2019-03-18T21:11:11.210Z,2.70
2019-03-18T21:13:40.303Z,3.37
2019-03-18T21:16:09.558Z,3.80
2019-03-18T21:18:38.680Z,3.70
2019-03-18T21:21:07.814Z,2.90
2019-03-18T21:23:36.967Z,2.57
2019-03-18T21:26:07.325Z,3.07
2019-03-18T21:28:41.268Z,3.07
2019-03-18T21:31:07.576Z,2.70
2019-03-18T21:33:36.728Z,2.33
2019-03-18T21:36:05.983Z,2.97
2019-03-18T21:38:35.069Z,2.67
2019-03-18T21:41:06.929Z,3.10
2019-03-18T21:43:36.225Z,2.73
2019-03-18T21:46:05.832Z,2.60
2019-03-18T21:48:34.964Z,2.77
2019-03-18T21:51:04.074Z,2.50
2019-03-18T21:53:33.463Z,2.20
2019-03-18T21:56:02.895Z,2.23
2019-03-18T21:58:33.154Z,2.37
2019-03-18T22:01:02.443Z,1.87
2019-03-18T22:03:31.535Z,2.07
2019-03-18T22:06:00.968Z,2.07
2019-03-18T22:08:30.144Z,2.60
2019-03-18T22:10:59.242Z,4.23
2019-03-18T22:13:28.349Z,2.50
2019-03-18T22:15:58.184Z,2.63
2019-03-18T22:18:27.360Z,3.30
2019-03-18T22:20:56.417Z,2.67
2019-03-18T22:23:25.571Z,2.77
2019-03-18T22:25:54.782Z,2.50
2019-03-18T22:28:25.299Z,2.40
2019-03-18T22:30:54.523Z,2.30
2019-03-18T22:33:23.696Z,2.87
2019-03-18T22:35:53.970Z,2.67
2019-03-18T22:38:23.158Z,2.83
2019-03-18T22:40:52.273Z,2.50
2019-03-18T22:43:21.390Z,2.57
2019-03-18T22:45:50.500Z,2.93
2019-03-18T22:48:19.590Z,2.30
2019-03-18T22:50:48.618Z,1.90
2019-03-18T22:53:17.635Z,1.63
2019-03-18T22:55:46.904Z,2.10
2019-03-18T22:58:15.982Z,2.13
2019-03-18T23:00:47.578Z,2.30
2019-03-18T23:03:16.758Z,2.43
2019-03-18T23:05:46.025Z,2.27
2019-03-18T23:08:15.210Z,2.70
2019-03-18T23:10:44.319Z,2.30
2019-03-18T23:13:13.416Z,2.40
2019-03-18T23:15:42.511Z,1.97
2019-03-18T23:18:11.594Z,2.90
2019-03-18T23:20:42.727Z,3.93
2019-03-18T23:23:16.185Z,2.40
2019-03-18T23:25:45.318Z,3.43
2019-03-18T23:28:18.523Z,2.37
2019-03-18T23:30:47.616Z,2.00
2019-03-18T23:33:16.710Z,1.93
2019-03-18T23:35:45.876Z,2.00
2019-03-18T23:38:15.054Z,2.07
2019-03-18T23:40:44.137Z,1.73
2019-03-18T23:43:13.230Z,1.93
2019-03-18T23:45:42.356Z,1.90
2019-03-18T23:48:11.727Z,2.20
2019-03-18T23:50:40.807Z,2.03
2019-03-18T23:53:12.500Z,1.90
2019-03-18T23:55:41.606Z,2.17
2019-03-18T23:58:14.047Z,2.00
